Time;durP1;ratioP1;P1;durP2;ratioP2;P2;SDS_P1;SDS_P2;PMS_P1;PMS_P2;Temp;Humidity;BMP_temperature;BMP_pressure;BME280_temperature;BME280_humidity;BME280_pressure;Samples;Min_cycle;Max_cycle;Signal;HPM_P1;HPM_P2
2021/10/26 00:00:40;;;;;;;8.93;5.53;;;;;;;;;;10286848;28;20041;-64
2021/10/26 00:05:37;;;;;;;18.13;10.47;;;;;;;;;;10268157;28;20037;-62
2021/10/26 00:10:35;;;;;;;8.80;5.27;;;;;;;;;;10279545;28;20502;-62
2021/10/26 00:15:32;;;;;;;15.30;8.73;;;;;;;;;;10288719;28;20425;-62
2021/10/26 00:20:31;;;;;;;27.00;15.20;;;;;;;;;;10280309;28;20033;-63
2021/10/26 00:25:28;;;;;;;13.13;6.45;;;;;;;;;;10275156;28;20116;-64
2021/10/26 00:30:26;;;;;;;12.80;7.70;;;;;;;;;;10282953;28;20569;-63
2021/10/26 00:35:27;;;;;;;15.97;9.30;;;;;;;;;;10280124;28;20044;-64
2021/10/26 00:40:25;;;;;;;30.73;15.27;;;;;;;;;;10286462;28;20096;-63
2021/10/26 00:45:22;;;;;;;22.33;12.90;;;;;;;;;;10285163;28;20038;-61
2021/10/26 00:50:20;;;;;;;18.45;9.27;;;;;;;;;;10273067;28;20056;-60
2021/10/26 00:55:18;;;;;;;29.63;17.77;;;;;;;;;;10278810;28;20033;-63
2021/10/26 01:00:16;;;;;;;30.00;15.40;;;;;;;;;;10288953;28;20566;-65
2021/10/26 01:05:14;;;;;;;22.05;12.00;;;;;;;;;;10268858;28;20061;-65
2021/10/26 01:10:12;;;;;;;29.13;17.13;;;;;;;;;;10283996;28;20124;-64
2021/10/26 01:15:11;;;;;;;32.30;17.27;;;;;;;;;;10293251;28;20061;-64
2021/10/26 01:20:09;;;;;;;;;;;;;;;;;;10293733;28;20396;-65
2021/10/26 01:25:08;;;;;;;5.63;4.07;;;;;;;;;;10275119;28;19921;-64
2021/10/26 01:30:07;;;;;;;7.20;4.25;;;;;;;;;;10274995;28;20046;-64
2021/10/26 01:35:04;;;;;;;8.35;4.35;;;;;;;;;;10287253;28;20529;-65
2021/10/26 01:40:02;;;;;;;25.80;14.30;;;;;;;;;;10292299;28;20068;-62
2021/10/26 01:45:01;;;;;;;10.93;7.28;;;;;;;;;;10282363;28;20132;-64
2021/10/26 01:49:59;;;;;;;16.08;8.95;;;;;;;;;;10273106;28;20499;-64
2021/10/26 01:54:56;;;;;;;33.10;16.33;;;;;;;;;;10288265;28;20072;-62
2021/10/26 01:59:56;;;;;;;14.10;6.63;;;;;;;;;;10285225;28;20491;-63
2021/10/26 02:04:53;;;;;;;13.45;6.82;;;;;;;;;;10283374;28;20194;-64
2021/10/26 02:09:53;;;;;;;35.22;17.60;;;;;;;;;;10282239;28;20033;-63
2021/10/26 02:14:50;;;;;;;17.37;8.67;;;;;;;;;;10277994;28;20038;-64
2021/10/26 02:19:48;;;;;;;27.50;12.90;;;;;;;;;;10275385;28;20038;-63
2021/10/26 02:24:46;;;;;;;29.00;15.10;;;;;;;;;;10276901;28;20048;-64
2021/10/26 02:29:43;;;;;;;30.83;17.17;;;;;;;;;;10269327;28;20364;-64
2021/10/26 02:34:41;;;;;;;27.20;13.65;;;;;;;;;;10287786;28;20038;-64
2021/10/26 02:39:39;;;;;;;16.70;8.07;;;;;;;;;;10279401;28;20037;-65
2021/10/26 02:44:37;;;;;;;19.90;10.07;;;;;;;;;;10277674;28;20495;-65
2021/10/26 02:49:34;;;;;;;12.00;6.47;;;;;;;;;;10285443;28;20055;-65
2021/10/26 02:54:32;;;;;;;26.87;14.03;;;;;;;;;;10255434;28;20040;-64
2021/10/26 02:59:29;;;;;;;31.40;17.10;;;;;;;;;;10283186;28;20030;-63
2021/10/26 03:04:26;;;;;;;31.80;15.53;;;;;;;;;;10304424;28;20087;-62
2021/10/26 03:09:24;;;;;;;35.63;15.23;;;;;;;;;;10284370;28;20048;-63
2021/10/26 03:14:21;;;;;;;17.67;10.03;;;;;;;;;;10275207;28;20307;-63
2021/10/26 03:19:19;;;;;;;24.57;13.13;;;;;;;;;;10278428;28;20038;-63
2021/10/26 03:24:17;;;;;;;12.18;6.45;;;;;;;;;;10278369;28;20053;-63
2021/10/26 03:29:15;;;;;;;29.30;14.97;;;;;;;;;;10292085;28;20132;-62
2021/10/26 03:34:13;;;;;;;25.95;13.48;;;;;;;;;;10292332;28;20033;-64
2021/10/26 03:39:11;;;;;;;23.65;6.82;;;;;;;;;;10274729;28;20042;-63
2021/10/26 03:44:09;;;;;;;13.87;6.63;;;;;;;;;;10276919;28;20030;-61
2021/10/26 03:49:06;;;;;;;20.47;11.03;;;;;;;;;;10278273;28;20120;-61
2021/10/26 03:54:05;;;;;;;18.25;8.43;;;;;;;;;;10276963;28;20045;-61
2021/10/26 03:59:05;;;;;;;38.50;19.57;;;;;;;;;;10284700;28;20041;-61
2021/10/26 04:04:04;;;;;;;25.60;13.57;;;;;;;;;;10288912;28;20037;-61
2021/10/26 04:09:09;;;;;;;14.10;7.15;;;;;;;;;;10270341;28;20123;-65
2021/10/26 04:14:07;;;;;;;37.38;18.25;;;;;;;;;;10288200;28;20041;-63
2021/10/26 04:19:05;;;;;;;27.13;13.57;;;;;;;;;;10283643;28;20037;-64
2021/10/26 04:24:07;;;;;;;26.98;13.98;;;;;;;;;;10277666;28;20033;-64
2021/10/26 04:29:05;;;;;;;41.03;19.13;;;;;;;;;;10276379;28;20495;-62
2021/10/26 04:34:02;;;;;;;35.93;15.30;;;;;;;;;;10279698;28;20080;-62
2021/10/26 04:39:02;;;;;;;26.02;12.02;;;;;;;;;;10285340;28;20094;-62
2021/10/26 04:44:04;;;;;;;10.70;5.30;;;;;;;;;;10279621;28;20045;-63
2021/10/26 04:49:03;;;;;;;32.90;13.93;;;;;;;;;;10271617;28;20136;-63
2021/10/26 04:54:02;;;;;;;30.02;14.07;;;;;;;;;;10288308;28;20111;-63
2021/10/26 04:59:00;;;;;;;47.70;18.83;;;;;;;;;;10305758;28;20255;-61
2021/10/26 05:03:57;;;;;;;22.85;10.77;;;;;;;;;;10293228;28;20832;-62
2021/10/26 05:08:55;;;;;;;35.60;15.23;;;;;;;;;;10284274;28;20037;-62
2021/10/26 05:13:54;;;;;;;33.10;16.45;;;;;;;;;;10303426;28;20061;-63
2021/10/26 05:19:11;;;;;;;21.27;10.63;;;;;;;;;;10286113;28;20508;-62
2021/10/26 05:24:30;;;;;;;18.77;8.05;;;;;;;;;;10287949;28;20038;-61
2021/10/26 05:29:37;;;;;;;27.10;10.10;;;;;;;;;;10307105;28;20491;-61
2021/10/26 05:34:36;;;;;;;17.45;8.85;;;;;;;;;;10276890;28;20040;-62
2021/10/26 05:39:34;;;;;;;20.77;11.05;;;;;;;;;;10279695;28;20053;-61
2021/10/26 05:44:32;;;;;;;23.67;11.27;;;;;;;;;;10280625;28;20037;-61
2021/10/26 05:49:30;;;;;;;20.00;10.65;;;;;;;;;;10284177;28;20529;-60
2021/10/26 05:54:28;;;;;;;26.05;11.93;;;;;;;;;;10280153;28;20041;-61
2021/10/26 05:59:26;;;;;;;23.75;11.57;;;;;;;;;;10275943;28;20434;-61
2021/10/26 06:04:24;;;;;;;27.17;13.17;;;;;;;;;;10263170;28;20040;-62
2021/10/26 06:09:24;;;;;;;27.25;13.65;;;;;;;;;;10270027;28;20550;-61
2021/10/26 06:14:22;;;;;;;;;;;;;;;;;;10265471;28;21574;-60
2021/10/26 06:19:23;;;;;;;27.02;12.50;;;;;;;;;;10256085;28;19921;-62
2021/10/26 06:24:21;;;;;;;25.83;11.70;;;;;;;;;;10279347;28;20045;-60
2021/10/26 06:29:19;;;;;;;26.27;12.13;;;;;;;;;;10274690;28;20423;-61
2021/10/26 06:34:39;;;;;;;26.48;10.90;;;;;;;;;;10274118;28;20042;-60
2021/10/26 06:39:37;;;;;;;22.63;11.93;;;;;;;;;;10271902;28;20511;-61
2021/10/26 06:44:35;;;;;;;28.17;12.15;;;;;;;;;;10267604;28;20852;-61
2021/10/26 06:50:03;;;;;;;24.52;10.73;;;;;;;;;;10208375;28;20682;-61
2021/10/26 06:55:29;;;;;;;21.42;10.65;;;;;;;;;;10214640;28;20041;-60
2021/10/26 07:01:07;;;;;;;23.65;10.38;;;;;;;;;;10223792;28;20041;-61
2021/10/26 07:06:16;;;;;;;25.55;10.80;;;;;;;;;;10278408;28;20041;-62
2021/10/26 07:11:28;;;;;;;21.17;11.85;;;;;;;;;;10276849;28;20459;-62
2021/10/26 07:16:27;;;;;;;21.45;10.05;;;;;;;;;;10279675;28;20106;-61
2021/10/26 07:21:25;;;;;;;17.47;9.20;;;;;;;;;;10278014;28;20107;-62
2021/10/26 07:26:43;;;;;;;21.00;9.48;;;;;;;;;;10272709;28;20507;-61
2021/10/26 07:31:40;;;;;;;19.98;9.05;;;;;;;;;;10294570;28;20395;-62
2021/10/26 07:36:43;;;;;;;20.17;11.47;;;;;;;;;;10280946;28;20098;-61
2021/10/26 07:41:40;;;;;;;17.88;8.30;;;;;;;;;;10266201;28;20411;-62
2021/10/26 07:47:07;;;;;;;23.73;9.77;;;;;;;;;;10275781;28;20042;-62
2021/10/26 07:52:05;;;;;;;;;;;;;;;;;;10277313;28;20065;-61
2021/10/26 07:57:03;;;;;;;23.05;9.43;;;;;;;;;;10276921;28;20421;-61
2021/10/26 08:02:01;;;;;;;22.10;9.32;;;;;;;;;;10273334;28;20411;-62
2021/10/26 08:07:18;;;;;;;21.70;10.00;;;;;;;;;;10272193;28;20969;-61
2021/10/26 08:12:17;;;;;;;21.23;9.52;;;;;;;;;;10283526;28;20041;-60
2021/10/26 08:17:15;;;;;;;25.23;9.18;;;;;;;;;;10272587;28;20053;-63
2021/10/26 08:22:16;;;;;;;21.50;9.45;;;;;;;;;;10277157;28;20730;-62
2021/10/26 08:27:17;;;;;;;23.00;11.32;;;;;;;;;;10284453;28;20299;-63
2021/10/26 08:37:23;;;;;;;21.13;10.50;;;;;;;;;;10288112;28;20041;-62
2021/10/26 08:42:33;;;;;;;19.75;8.70;;;;;;;;;;10281752;28;20098;-63
2021/10/26 08:47:38;;;;;;;20.58;9.40;;;;;;;;;;10279164;28;20037;-63
2021/10/26 08:52:54;;;;;;;20.42;10.05;;;;;;;;;;10281572;28;20495;-62
2021/10/26 08:58:10;;;;;;;19.38;9.05;;;;;;;;;;10269405;28;20033;-63
2021/10/26 09:03:24;;;;;;;19.35;9.73;;;;;;;;;;10273486;28;20845;-62
2021/10/26 09:08:23;;;;;;;19.30;9.23;;;;;;;;;;10281629;28;20041;-61
2021/10/26 09:19:07;;;;;;;17.83;9.18;;;;;;;;;;10280854;28;20049;-64
2021/10/26 09:24:15;;;;;;;20.05;8.60;;;;;;;;;;10286397;28;20041;-62
2021/10/26 09:29:13;;;;;;;18.23;8.30;;;;;;;;;;10282570;28;20041;-62
2021/10/26 09:34:13;;;;;;;17.92;7.95;;;;;;;;;;10289102;28;20083;-60
2021/10/26 09:39:13;;;;;;;15.68;7.60;;;;;;;;;;10291080;28;20041;-60
2021/10/26 09:44:14;;;;;;;18.42;7.18;;;;;;;;;;10282357;28;20254;-63
2021/10/26 09:49:32;;;;;;;16.70;7.93;;;;;;;;;;10283436;28;20041;-62
2021/10/26 09:54:29;;;;;;;12.52;6.00;;;;;;;;;;10280944;28;20046;-64
2021/10/26 09:59:27;;;;;;;16.60;6.80;;;;;;;;;;10265499;28;20450;-63
2021/10/26 10:04:28;;;;;;;16.17;6.80;;;;;;;;;;10272057;28;20083;-61
2021/10/26 10:09:25;;;;;;;12.70;7.00;;;;;;;;;;10265136;28;20096;-60
2021/10/26 10:14:23;;;;;;;14.57;6.20;;;;;;;;;;10275687;28;20037;-62
2021/10/26 10:19:20;;;;;;;16.80;7.03;;;;;;;;;;10279526;28;20042;-61
2021/10/26 10:24:19;;;;;;;12.27;6.40;;;;;;;;;;10276127;28;20052;-62
2021/10/26 10:29:20;;;;;;;13.27;6.03;;;;;;;;;;10278725;28;20064;-62
2021/10/26 10:34:19;;;;;;;12.65;5.07;;;;;;;;;;10271477;28;20045;-61
2021/10/26 10:39:18;;;;;;;12.55;5.45;;;;;;;;;;10259419;28;20053;-61
2021/10/26 10:44:21;;;;;;;9.13;5.00;;;;;;;;;;10276086;28;21483;-61
2021/10/26 10:49:19;;;;;;;11.60;5.35;;;;;;;;;;10277197;28;20116;-59
2021/10/26 10:54:35;;;;;;;8.83;4.30;;;;;;;;;;10277222;28;20049;-63
2021/10/26 10:59:40;;;;;;;11.43;5.43;;;;;;;;;;10280701;28;20052;-62
2021/10/26 11:04:38;;;;;;;7.65;3.70;;;;;;;;;;10276735;28;20056;-61
2021/10/26 11:09:38;;;;;;;11.53;3.00;;;;;;;;;;10279142;28;20408;-61
2021/10/26 11:14:48;;;;;;;13.18;5.50;;;;;;;;;;10279802;28;20383;-61
2021/10/26 11:19:46;;;;;;;8.88;5.25;;;;;;;;;;10271387;28;20040;-60
2021/10/26 11:25:04;;;;;;;5.30;3.85;;;;;;;;;;10292836;28;20038;-58
2021/10/26 11:30:21;;;;;;;7.77;3.67;;;;;;;;;;10252750;28;20395;-61
2021/10/26 11:35:19;;;;;;;13.00;4.32;;;;;;;;;;10265348;28;20049;-61
2021/10/26 11:40:17;;;;;;;7.17;3.60;;;;;;;;;;10274570;28;20049;-60
2021/10/26 11:45:15;;;;;;;;;;;;;;;;;;10284118;28;20041;-61
2021/10/26 11:50:19;;;;;;;9.77;3.63;;;;;;;;;;10293552;28;19912;-61
2021/10/26 11:55:26;;;;;;;7.35;3.17;;;;;;;;;;10286273;28;20128;-62
2021/10/26 12:00:24;;;;;;;8.43;3.90;;;;;;;;;;10297217;28;20503;-61
2021/10/26 12:05:21;;;;;;;9.10;3.43;;;;;;;;;;10288465;28;20407;-60
2021/10/26 12:10:21;;;;;;;5.27;2.50;;;;;;;;;;10284088;28;20060;-60
2021/10/26 12:15:18;;;;;;;6.22;2.97;;;;;;;;;;10280401;28;20037;-62
2021/10/26 12:20:21;;;;;;;9.33;3.20;;;;;;;;;;10285729;28;20041;-62
2021/10/26 12:25:44;;;;;;;4.70;3.15;;;;;;;;;;10286072;28;20034;-62
2021/10/26 12:30:43;;;;;;;5.82;3.25;;;;;;;;;;10293094;28;20037;-63
2021/10/26 12:35:48;;;;;;;7.55;3.22;;;;;;;;;;10287481;28;20042;-63
2021/10/26 12:40:50;;;;;;;5.78;3.55;;;;;;;;;;10273791;28;20160;-62
2021/10/26 12:45:49;;;;;;;6.10;2.75;;;;;;;;;;10270391;28;20048;-62
2021/10/26 12:50:49;;;;;;;;;;;;;;;;;;10271647;28;20037;-63
2021/10/26 12:55:54;;;;;;;3.65;2.63;;;;;;;;;;10286714;28;19916;-63
2021/10/26 13:00:51;;;;;;;6.75;3.05;;;;;;;;;;10279588;28;20183;-63
2021/10/26 13:05:52;;;;;;;9.53;2.83;;;;;;;;;;10294115;28;20168;-60
2021/10/26 13:10:51;;;;;;;3.90;2.40;;;;;;;;;;10269698;28;20041;-63
2021/10/26 13:15:48;;;;;;;12.98;3.58;;;;;;;;;;10289379;28;20041;-61
2021/10/26 13:20:47;;;;;;;7.33;2.43;;;;;;;;;;10293121;28;20089;-62
2021/10/26 13:25:46;;;;;;;4.55;2.63;;;;;;;;;;10290193;28;20392;-61
2021/10/26 13:30:50;;;;;;;7.57;1.48;;;;;;;;;;10278019;28;20187;-60
2021/10/26 13:35:47;;;;;;;7.55;2.83;;;;;;;;;;10288168;28;20041;-61
2021/10/26 13:40:45;;;;;;;2.90;1.85;;;;;;;;;;10291161;28;20457;-61
2021/10/26 13:45:43;;;;;;;9.20;3.60;;;;;;;;;;10285537;28;20091;-60
2021/10/26 13:50:41;;;;;;;4.20;2.08;;;;;;;;;;10283968;28;20128;-59
2021/10/26 13:55:40;;;;;;;5.45;3.10;;;;;;;;;;10285089;28;20041;-61
2021/10/26 14:00:40;;;;;;;7.57;2.63;;;;;;;;;;10286537;28;20025;-62
2021/10/26 14:05:37;;;;;;;9.80;3.72;;;;;;;;;;10270989;28;20041;-62
2021/10/26 14:10:35;;;;;;;5.73;3.43;;;;;;;;;;10264643;28;20491;-63
2021/10/26 14:15:33;;;;;;;4.30;2.70;;;;;;;;;;10285730;28;20654;-60
2021/10/26 14:20:32;;;;;;;;;;;;;;;;;;10280907;28;20040;-61
2021/10/26 14:25:31;;;;;;;4.85;2.97;;;;;;;;;;10283391;28;19913;-60
2021/10/26 14:30:28;;;;;;;3.20;2.13;;;;;;;;;;10266768;28;20033;-61
2021/10/26 14:35:28;;;;;;;7.30;3.13;;;;;;;;;;10284090;28;20475;-60
2021/10/26 14:56:10;;;;;;;6.47;3.17;;;;;;;;;;10283735;28;20432;-59
2021/10/26 15:01:07;;;;;;;7.32;3.50;;;;;;;;;;10289984;28;20042;-60
2021/10/26 15:06:05;;;;;;;6.20;3.40;;;;;;;;;;10265029;28;20503;-58
2021/10/26 15:11:10;;;;;;;9.63;2.97;;;;;;;;;;10283370;28;20051;-61
2021/10/26 15:16:09;;;;;;;5.45;2.42;;;;;;;;;;10283634;28;20045;-62
2021/10/26 15:21:14;;;;;;;6.15;2.58;;;;;;;;;;10278036;28;20040;-59
2021/10/26 15:36:31;;;;;;;6.13;2.67;;;;;;;;;;10296266;28;20465;-62
2021/10/26 15:41:29;;;;;;;4.80;2.65;;;;;;;;;;10285116;28;20092;-62
2021/10/26 15:46:26;;;;;;;6.10;2.43;;;;;;;;;;10291293;28;20033;-63
2021/10/26 15:51:24;;;;;;;10.10;3.50;;;;;;;;;;10291404;28;20064;-63
2021/10/26 15:56:23;;;;;;;8.85;3.65;;;;;;;;;;10288206;28;20034;-60
2021/10/26 16:01:20;;;;;;;8.38;3.30;;;;;;;;;;10286233;28;20037;-61
2021/10/26 16:06:18;;;;;;;10.90;4.30;;;;;;;;;;10275899;28;20049;-62
2021/10/26 16:11:29;;;;;;;;;;;;;;;;;;10279421;28;20068;-60
2021/10/26 16:16:33;;;;;;;7.38;3.40;;;;;;;;;;10289987;28;19925;-61
2021/10/26 16:21:31;;;;;;;8.65;3.78;;;;;;;;;;10286755;28;20048;-60
2021/10/26 16:26:28;;;;;;;11.25;3.72;;;;;;;;;;10288840;28;20048;-60
2021/10/26 16:31:25;;;;;;;12.13;3.87;;;;;;;;;;10284242;28;20038;-61
2021/10/26 16:36:25;;;;;;;10.38;4.45;;;;;;;;;;10240204;28;20052;-61
2021/10/26 16:41:22;;;;;;;13.73;4.50;;;;;;;;;;10269968;28;20065;-60
2021/10/26 16:51:17;;;;;;;15.87;4.67;;;;;;;;;;10283725;28;20362;-63
2021/10/26 16:56:16;;;;;;;7.23;4.37;;;;;;;;;;10290576;28;20875;-62
2021/10/26 17:01:15;;;;;;;8.00;4.70;;;;;;;;;;10283305;28;20061;-63
2021/10/26 17:06:13;;;;;;;14.93;5.22;;;;;;;;;;10280194;28;20121;-64
2021/10/26 17:11:11;;;;;;;8.63;4.43;;;;;;;;;;10313675;28;20034;-63
2021/10/26 17:16:10;;;;;;;11.73;5.07;;;;;;;;;;10297551;28;20041;-62
2021/10/26 17:21:12;;;;;;;10.90;5.20;;;;;;;;;;10302528;28;20068;-64
2021/10/26 17:26:10;;;;;;;11.77;5.73;;;;;;;;;;10318106;28;20041;-64
2021/10/26 17:31:08;;;;;;;8.93;4.13;;;;;;;;;;10291559;28;20048;-64
2021/10/26 17:36:11;;;;;;;6.80;3.40;;;;;;;;;;10297132;28;20613;-63
2021/10/26 17:41:19;;;;;;;6.20;3.92;;;;;;;;;;10287511;28;20048;-63
2021/10/26 17:46:17;;;;;;;7.07;3.63;;;;;;;;;;10283961;28;20130;-63
2021/10/26 17:51:14;;;;;;;8.67;4.50;;;;;;;;;;10287974;28;20111;-62
2021/10/26 17:56:12;;;;;;;7.60;4.83;;;;;;;;;;10295626;28;20049;-63
2021/10/26 18:01:17;;;;;;;10.43;4.05;;;;;;;;;;10295339;28;20038;-62
2021/10/26 18:06:16;;;;;;;14.48;4.72;;;;;;;;;;10291400;28;20041;-61
2021/10/26 18:11:14;;;;;;;16.52;6.50;;;;;;;;;;10294900;28;20098;-63
2021/10/26 18:16:11;;;;;;;;;;;;;;;;;;10294416;28;20099;-62
2021/10/26 18:21:09;;;;;;;17.57;6.53;;;;;;;;;;10291648;28;19920;-62
2021/10/26 18:26:06;;;;;;;14.30;6.37;;;;;;;;;;10290597;28;20064;-62
2021/10/26 18:31:06;;;;;;;20.13;5.53;;;;;;;;;;10297391;28;20403;-62
2021/10/26 18:36:04;;;;;;;17.77;6.95;;;;;;;;;;10294877;28;20049;-62
2021/10/26 18:46:11;;;;;;;10.93;5.00;;;;;;;;;;10288341;28;20073;-62
2021/10/26 18:51:09;;;;;;;14.95;6.72;;;;;;;;;;10292382;28;20132;-61
2021/10/26 18:56:10;;;;;;;15.07;6.68;;;;;;;;;;10286110;28;20462;-61
2021/10/26 19:01:08;;;;;;;13.75;7.20;;;;;;;;;;10282104;28;20041;-61
2021/10/26 19:06:11;;;;;;;14.37;6.70;;;;;;;;;;10289041;28;20041;-61
2021/10/26 19:11:09;;;;;;;11.95;5.47;;;;;;;;;;10289380;28;20030;-60
2021/10/26 19:16:08;;;;;;;15.00;7.05;;;;;;;;;;10290352;28;20053;-61
2021/10/26 19:21:06;;;;;;;7.67;4.60;;;;;;;;;;10283909;28;20029;-60
2021/10/26 19:26:04;;;;;;;;;;;;;;;;;;10279807;28;20511;-60
2021/10/26 19:31:06;;;;;;;12.90;7.10;;;;;;;;;;10294148;28;19917;-61
2021/10/26 19:36:04;;;;;;;14.85;5.68;;;;;;;;;;10277107;28;20072;-63
2021/10/26 19:41:02;;;;;;;;;;;;;;;;;;10293464;28;20095;-63
2021/10/26 19:46:00;;;;;;;17.20;6.50;;;;;;;;;;10288659;28;19940;-63
2021/10/26 19:50:58;;;;;;;15.77;7.47;;;;;;;;;;10291297;28;20072;-62
2021/10/26 19:55:55;;;;;;;10.63;6.22;;;;;;;;;;10286534;28;20038;-62
2021/10/26 20:00:53;;;;;;;9.93;4.63;;;;;;;;;;10285462;28;20253;-61
2021/10/26 20:05:51;;;;;;;14.17;5.07;;;;;;;;;;10271351;28;20649;-63
2021/10/26 20:10:48;;;;;;;11.97;6.17;;;;;;;;;;10286742;28;20048;-60
2021/10/26 20:15:47;;;;;;;17.03;9.13;;;;;;;;;;10276376;28;20098;-59
2021/10/26 20:21:25;;;;;;;17.83;9.70;;;;;;;;;;10281293;28;20049;-58
2021/10/26 20:26:10;;;;;;;13.00;7.78;;;;;;;;;;10268738;28;20526;-61
2021/10/26 20:31:07;;;;;;;;;;;;;;;;;;10283463;28;20357;-60
2021/10/26 20:36:05;;;;;;;10.00;6.00;;;;;;;;;;10277571;28;20072;-59
2021/10/26 20:41:03;;;;;;;9.38;5.35;;;;;;;;;;10285397;28;20050;-60
2021/10/26 20:46:00;;;;;;;8.82;4.95;;;;;;;;;;10282910;28;20398;-61
2021/10/26 20:51:18;;;;;;;8.97;5.43;;;;;;;;;;10281238;28;20919;-60
2021/10/26 20:56:15;;;;;;;11.02;4.20;;;;;;;;;;10286473;28;20223;-60
2021/10/26 21:01:12;;;;;;;9.97;4.47;;;;;;;;;;10276600;28;20038;-61
2021/10/26 21:06:10;;;;;;;6.53;4.30;;;;;;;;;;10285431;28;20049;-59
2021/10/26 21:11:07;;;;;;;8.73;3.40;;;;;;;;;;10277120;28;20114;-60
2021/10/26 21:16:06;;;;;;;10.57;3.90;;;;;;;;;;10272301;28;20042;-60
2021/10/26 21:21:04;;;;;;;6.68;3.42;;;;;;;;;;10291931;28;20033;-61
2021/10/26 21:26:01;;;;;;;7.97;4.33;;;;;;;;;;10288599;28;20032;-62
2021/10/26 21:30:58;;;;;;;6.50;4.07;;;;;;;;;;10278743;28;20045;-60
2021/10/26 21:35:56;;;;;;;13.73;4.97;;;;;;;;;;10284636;28;20033;-60
2021/10/26 21:40:54;;;;;;;9.43;5.93;;;;;;;;;;10281156;28;20041;-63
2021/10/26 21:45:51;;;;;;;14.50;7.10;;;;;;;;;;10258634;28;20038;-60
2021/10/26 21:50:48;;;;;;;18.60;10.50;;;;;;;;;;10286811;28;20411;-62
2021/10/26 21:55:46;;;;;;;10.90;5.60;;;;;;;;;;10281015;28;20137;-62
2021/10/26 22:00:43;;;;;;;14.40;7.23;;;;;;;;;;10254792;28;20068;-61
2021/10/26 22:05:41;;;;;;;17.33;8.67;;;;;;;;;;10295542;28;20037;-62
2021/10/26 22:10:38;;;;;;;15.23;5.83;;;;;;;;;;10273025;28;20132;-58
2021/10/26 22:15:37;;;;;;;17.47;11.27;;;;;;;;;;10278332;28;20041;-60
2021/10/26 22:20:34;;;;;;;16.33;9.05;;;;;;;;;;10277710;28;20072;-60
2021/10/26 22:25:32;;;;;;;12.57;6.90;;;;;;;;;;10259709;28;20091;-59
2021/10/26 22:30:29;;;;;;;17.43;7.40;;;;;;;;;;10272221;28;20042;-59
2021/10/26 22:35:28;;;;;;;17.77;10.20;;;;;;;;;;10285813;28;20038;-60
2021/10/26 22:40:25;;;;;;;18.60;10.68;;;;;;;;;;10275398;28;20503;-60
2021/10/26 22:45:23;;;;;;;27.50;10.50;;;;;;;;;;10271333;28;20052;-59
2021/10/26 22:50:21;;;;;;;11.63;5.90;;;;;;;;;;10275400;28;20036;-58
2021/10/26 22:55:18;;;;;;;18.77;7.90;;;;;;;;;;10279866;28;20080;-60
2021/10/26 23:00:15;;;;;;;15.50;8.57;;;;;;;;;;10278446;28;20049;-59
2021/10/26 23:05:13;;;;;;;12.53;6.90;;;;;;;;;;10287328;28;20414;-60
2021/10/26 23:10:11;;;;;;;10.40;6.53;;;;;;;;;;10267461;28;20254;-57
2021/10/26 23:15:08;;;;;;;14.00;7.13;;;;;;;;;;10275030;28;20516;-60
2021/10/26 23:20:07;;;;;;;10.03;5.83;;;;;;;;;;10265268;28;20034;-59
2021/10/26 23:25:04;;;;;;;15.40;9.18;;;;;;;;;;10272991;28;20512;-59
2021/10/26 23:30:02;;;;;;;13.40;6.87;;;;;;;;;;10261040;28;20035;-59
2021/10/26 23:35:00;;;;;;;8.93;5.67;;;;;;;;;;10285308;28;20054;-58
2021/10/26 23:39:57;;;;;;;14.50;7.80;;;;;;;;;;10273258;28;20060;-58
2021/10/26 23:44:54;;;;;;;14.17;6.67;;;;;;;;;;10268682;28;20457;-59
2021/10/26 23:49:52;;;;;;;16.63;7.73;;;;;;;;;;10258220;28;20037;-60
2021/10/26 23:54:49;;;;;;;9.83;5.53;;;;;;;;;;10290601;28;20041;-59
2021/10/26 23:59:46;;;;;;;19.70;7.23;;;;;;;;;;10293291;28;20034;-60
